createdAt,value
2019-01-28T05:03:42.965Z,3.294373
2019-01-28T05:07:10.862Z,3.274231
2019-01-28T05:10:38.764Z,3.26416
2019-01-28T05:14:06.637Z,3.26416
2019-01-28T05:17:34.572Z,3.254089
2019-01-28T05:21:02.460Z,3.254089
2019-01-28T05:24:30.349Z,3.254089
2019-01-28T05:27:58.209Z,3.254089
2019-01-28T05:31:26.107Z,3.254089
2019-01-28T05:34:53.992Z,3.233948
2019-01-28T05:38:21.858Z,3.223877
2019-01-28T05:41:50.751Z,3.203735
2019-01-28T05:45:18.638Z,3.173523
2019-01-28T05:48:46.524Z,3.173523
2019-01-28T05:52:14.414Z,3.153381
2019-01-28T05:55:42.301Z,3.123169
2019-01-28T05:59:11.168Z,3.113098
2019-01-28T06:02:39.064Z,3.113098
2019-01-28T06:06:06.949Z,3.092957
2019-01-28T06:09:34.828Z,3.082886
2019-01-28T06:13:02.724Z,3.082886
2019-01-28T06:16:30.613Z,3.082886
2019-01-28T06:19:58.492Z,3.052673
2019-01-28T06:23:26.389Z,3.022461
2019-01-28T06:26:54.276Z,3.022461
2019-01-28T06:30:22.161Z,2.992249
2019-01-28T06:33:50.043Z,2.911682
2019-01-28T06:37:17.954Z,2.871399
2019-01-28T06:40:45.823Z,2.810974
2019-01-28T06:44:13.721Z,2.780762
2019-01-28T06:47:46.766Z,2.730408
2019-01-28T06:51:12.481Z,2.710266
2019-01-28T06:54:40.363Z,2.659912
2019-01-28T06:58:08.258Z,2.599487
2019-01-28T07:01:36.156Z,2.478638
2019-01-28T07:05:04.045Z,2.398071
2019-01-28T07:08:31.931Z,2.367859
2019-01-28T07:11:59.830Z,2.347717
2019-01-28T07:15:27.737Z,2.347717
2019-01-28T07:18:55.622Z,2.297363
2019-01-28T07:22:23.516Z,2.186584
2019-01-28T07:25:51.403Z,2.13623
2019-01-28T07:29:19.282Z,2.095947
2019-01-28T07:32:47.180Z,2.095947
2019-01-28T07:36:15.067Z,2.13623
2019-01-28T07:39:42.937Z,2.186584
2019-01-28T07:43:10.826Z,2.277222
2019-01-28T07:46:38.715Z,2.297363
2019-01-28T07:50:06.591Z,2.327576
2019-01-28T07:53:35.473Z,2.367859
2019-01-28T07:57:03.369Z,2.398071
2019-01-28T08:00:32.241Z,2.448425
2019-01-28T08:04:00.149Z,2.478638
2019-01-28T08:07:28.042Z,2.549133
2019-01-28T08:10:55.918Z,2.609558
2019-01-28T08:14:23.845Z,2.649841
2019-01-28T08:17:51.732Z,2.680054
2019-01-28T08:21:20.644Z,2.710266
2019-01-28T08:24:48.513Z,2.730408
2019-01-28T08:28:16.413Z,2.76062
2019-01-28T08:31:44.290Z,2.810974
2019-01-28T08:35:12.198Z,2.821045
2019-01-28T08:38:40.093Z,2.861328
2019-01-28T08:42:07.983Z,2.871399
2019-01-28T08:45:36.849Z,2.901611
2019-01-28T08:49:04.743Z,2.911682
2019-01-28T08:52:32.636Z,2.962036
2019-01-28T08:56:00.518Z,2.962036
2019-01-28T08:59:28.421Z,3.022461
2019-01-28T09:02:56.320Z,3.052673
2019-01-28T09:06:24.195Z,3.082886
2019-01-28T09:09:52.090Z,3.123169
2019-01-28T09:13:19.976Z,3.233948
2019-01-28T09:16:47.853Z,3.294373
2019-01-28T09:20:15.750Z,3.334656
2019-01-28T09:23:43.654Z,3.405151
2019-01-28T09:27:11.574Z,3.455505
2019-01-28T09:30:39.440Z,3.556213
2019-01-28T09:34:07.331Z,3.596497
2019-01-28T09:37:35.208Z,3.697205
2019-01-28T09:41:03.123Z,3.818054
2019-01-28T09:44:31.016Z,3.908691
2019-01-28T09:47:58.907Z,3.878479
2019-01-28T09:51:26.777Z,3.818054
2019-01-28T09:54:54.674Z,3.818054
2019-01-28T09:58:22.564Z,3.908691
2019-01-28T10:01:50.449Z,4.01947
2019-01-28T10:05:18.337Z,4.089966
2019-01-28T10:08:46.224Z,4.180603
2019-01-28T10:12:14.090Z,4.27124
2019-01-28T10:15:41.984Z,4.281311
2019-01-28T10:19:09.885Z,4.261169
2019-01-28T10:22:37.760Z,4.200745
2019-01-28T10:26:06.642Z,4.180603
2019-01-28T10:29:34.543Z,4.180603
2019-01-28T10:33:02.428Z,4.200745
2019-01-28T10:36:34.189Z,4.200745
2019-01-28T10:40:00.289Z,4.100037
2019-01-28T10:43:29.059Z,4.089966
2019-01-28T10:46:56.948Z,4.100037
2019-01-28T10:50:24.846Z,4.170532
2019-01-28T10:53:53.707Z,4.241028
2019-01-28T10:57:21.659Z,4.241028
2019-01-28T11:00:49.543Z,4.351807
2019-01-28T11:04:17.434Z,4.412231
2019-01-28T11:07:45.302Z,4.603577
2019-01-28T11:11:13.297Z,4.714355
2019-01-28T11:14:41.079Z,4.77478
2019-01-28T11:18:09.032Z,4.744568
2019-01-28T11:21:36.945Z,4.845276
2019-01-28T11:25:05.167Z,4.885559
2019-01-28T11:28:33.038Z,4.855347
2019-01-28T11:32:00.914Z,4.845276
2019-01-28T11:35:28.886Z,4.825134
2019-01-28T11:38:57.686Z,4.855347
2019-01-28T11:42:25.608Z,4.996338
2019-01-28T11:45:53.462Z,5.036621
2019-01-28T11:49:21.347Z,5.117188
2019-01-28T11:52:49.232Z,5.187683
2019-01-28T11:56:17.128Z,5.207825
2019-01-28T11:59:45.013Z,5.177612
2019-01-28T12:03:12.908Z,5.137329
2019-01-28T12:06:40.797Z,5.086975
2019-01-28T12:10:08.684Z,5.02655
2019-01-28T12:13:36.595Z,4.966125
2019-01-28T12:17:04.529Z,4.925842
2019-01-28T12:20:32.508Z,4.996338
2019-01-28T12:24:00.778Z,5.006409
2019-01-28T12:27:28.689Z,5.056763
2019-01-28T12:30:57.269Z,5.056763
2019-01-28T12:34:25.136Z,5.036621
2019-01-28T12:37:53.862Z,4.996338
2019-01-28T12:41:22.582Z,4.966125
2019-01-28T12:44:50.484Z,5.006409
2019-01-28T12:48:18.406Z,5.006409
2019-01-28T12:51:47.311Z,5.137329
2019-01-28T12:55:16.238Z,5.358887
2019-01-28T12:58:44.132Z,5.439453
2019-01-28T13:02:13.046Z,5.318604
2019-01-28T13:05:40.951Z,5.288391
2019-01-28T13:09:08.859Z,5.217896
2019-01-28T13:12:37.833Z,5.1474
2019-01-28T13:16:05.750Z,5.1474
2019-01-28T13:19:34.646Z,5.086975
2019-01-28T13:23:02.574Z,5.02655
2019-01-28T13:26:30.470Z,4.976196
2019-01-28T13:29:58.383Z,4.925842
2019-01-28T13:33:26.300Z,4.845276
2019-01-28T13:36:54.218Z,4.784851
2019-01-28T13:40:22.111Z,4.754639
2019-01-28T13:43:50.046Z,4.694214
2019-01-28T13:47:17.948Z,4.613647
2019-01-28T13:50:45.820Z,4.563293
2019-01-28T13:54:13.715Z,4.492798
2019-01-28T13:57:41.605Z,4.452515
2019-01-28T14:01:09.513Z,4.412231
2019-01-28T14:04:37.423Z,4.39209
2019-01-28T14:08:06.313Z,4.351807
2019-01-28T14:11:34.217Z,4.382019
2019-01-28T14:15:02.130Z,4.382019
2019-01-28T14:18:30.034Z,4.351807
2019-01-28T14:21:57.933Z,4.311523
2019-01-28T14:25:25.815Z,4.27124
2019-01-28T14:28:53.889Z,4.230957
2019-01-28T14:32:21.658Z,4.180603
2019-01-28T14:35:49.530Z,4.120178
2019-01-28T14:39:17.421Z,4.079895
2019-01-28T14:42:46.322Z,4.059753
2019-01-28T14:46:14.229Z,4.029541
2019-01-28T14:49:42.120Z,4.01947
2019-01-28T14:53:13.012Z,3.959045
2019-01-28T14:56:40.919Z,3.918762
2019-01-28T15:00:08.803Z,3.918762
2019-01-28T15:03:36.721Z,3.878479
2019-01-28T15:07:05.631Z,3.848267
2019-01-28T15:10:33.508Z,3.818054
2019-01-28T15:14:01.438Z,3.807983
2019-01-28T15:17:29.341Z,3.757629
2019-01-28T15:20:57.238Z,3.697205
2019-01-28T15:24:25.144Z,3.666992
2019-01-28T15:27:53.041Z,3.626709
2019-01-28T15:31:20.945Z,3.596497
2019-01-28T15:34:48.901Z,3.556213
2019-01-28T15:38:16.790Z,3.536072
2019-01-28T15:41:44.684Z,3.546143
2019-01-28T15:45:12.588Z,3.51593
2019-01-28T15:48:40.496Z,3.51593
2019-01-28T15:52:08.443Z,3.485718
2019-01-28T15:55:36.367Z,3.475647
2019-01-28T15:59:04.258Z,3.445435
2019-01-28T16:02:32.134Z,3.405151
2019-01-28T16:06:00.049Z,3.334656
2019-01-28T16:09:28.914Z,3.304443
2019-01-28T16:12:56.863Z,3.26416
2019-01-28T16:16:24.754Z,3.233948
2019-01-28T16:19:52.649Z,3.173523
2019-01-28T16:23:20.555Z,3.153381
2019-01-28T16:26:48.457Z,3.143311
2019-01-28T16:30:16.358Z,3.143311
2019-01-28T16:33:47.219Z,3.113098
2019-01-28T16:37:16.092Z,3.082886
2019-01-28T16:40:44.001Z,3.042603
2019-01-28T16:44:11.890Z,3.002319
2019-01-28T16:47:40.802Z,2.992249
2019-01-28T16:51:08.732Z,2.972107
2019-01-28T16:54:36.602Z,2.941895
2019-01-28T16:58:05.478Z,2.911682
2019-01-28T17:01:34.380Z,2.901611
2019-01-28T17:05:03.286Z,2.841187
2019-01-28T17:08:31.193Z,2.821045
2019-01-28T17:11:59.086Z,2.790833
2019-01-28T17:15:27.027Z,2.76062
2019-01-28T17:18:54.941Z,2.730408
2019-01-28T17:22:22.856Z,2.780762
2019-01-28T17:25:50.765Z,2.821045
2019-01-28T17:29:19.673Z,2.841187
2019-01-28T17:32:47.549Z,2.821045
2019-01-28T17:36:15.449Z,2.841187
2019-01-28T17:39:43.340Z,2.821045
2019-01-28T17:43:11.219Z,2.821045
2019-01-28T17:46:39.113Z,2.841187
2019-01-28T17:50:07.013Z,2.861328
2019-01-28T17:53:34.916Z,2.841187
2019-01-28T17:57:02.843Z,2.821045
2019-01-28T18:00:31.754Z,2.841187
2019-01-28T18:03:59.728Z,2.841187
2019-01-28T18:07:27.632Z,2.821045
2019-01-28T18:10:55.564Z,2.841187
2019-01-28T18:14:23.593Z,2.841187
2019-01-28T18:17:51.603Z,2.821045
2019-01-28T18:21:19.542Z,2.790833
2019-01-28T18:24:48.440Z,2.750549
2019-01-28T18:28:16.350Z,2.720337
2019-01-28T18:31:44.252Z,2.690125
2019-01-28T18:35:12.162Z,2.680054
2019-01-28T18:38:40.093Z,2.680054
2019-01-28T18:42:08.000Z,2.6297
2019-01-28T18:45:35.937Z,2.6297
2019-01-28T18:49:03.858Z,2.599487
2019-01-28T18:52:31.774Z,2.569275
2019-01-28T18:56:00.713Z,2.539062
2019-01-28T18:59:28.656Z,2.539062
2019-01-28T19:02:56.609Z,2.50885
2019-01-28T19:06:25.526Z,2.50885
2019-01-28T19:09:55.442Z,2.539062
2019-01-28T19:13:24.337Z,2.579346
2019-01-28T19:16:53.220Z,2.6297
2019-01-28T19:20:21.128Z,2.649841
2019-01-28T19:23:49.073Z,2.599487
2019-01-28T19:27:16.960Z,2.599487
2019-01-28T19:30:44.874Z,2.599487
2019-01-28T19:34:12.831Z,2.609558
2019-01-28T19:37:40.737Z,2.6297
2019-01-28T19:41:09.632Z,2.609558
2019-01-28T19:44:37.554Z,2.6297
2019-01-28T19:48:05.438Z,2.599487
2019-01-28T19:51:33.366Z,2.599487
2019-01-28T19:55:01.359Z,2.579346
2019-01-28T19:58:29.428Z,2.549133
2019-01-28T20:01:57.441Z,2.569275
2019-01-28T20:05:25.337Z,2.569275
2019-01-28T20:08:53.241Z,2.579346
2019-01-28T20:12:21.145Z,2.569275
2019-01-28T20:15:49.078Z,2.569275
2019-01-28T20:19:16.970Z,2.549133
2019-01-28T20:22:44.999Z,2.528992
2019-01-28T20:26:12.936Z,2.539062
2019-01-28T20:29:40.886Z,2.528992
2019-01-28T20:33:09.828Z,2.50885
2019-01-28T20:36:37.742Z,2.539062
2019-01-28T20:40:06.621Z,2.549133
2019-01-28T20:43:34.544Z,2.528992
2019-01-28T20:47:02.505Z,2.528992
2019-01-28T20:50:30.445Z,2.50885
2019-01-28T20:53:58.382Z,2.498779
2019-01-28T20:57:26.267Z,2.498779
2019-01-28T21:00:54.134Z,2.498779
2019-01-28T21:04:22.042Z,2.478638
2019-01-28T21:07:49.991Z,2.498779
2019-01-28T21:11:17.896Z,2.498779
2019-01-28T21:14:45.755Z,2.478638
2019-01-28T21:18:13.652Z,2.478638
2019-01-28T21:21:42.251Z,2.428284
2019-01-28T21:25:09.479Z,2.428284
2019-01-28T21:28:37.379Z,2.428284
2019-01-28T21:32:05.265Z,2.428284
2019-01-28T21:35:33.152Z,2.398071
2019-01-28T21:39:01.168Z,2.388
2019-01-28T21:42:29.099Z,2.357788
2019-01-28T21:45:57.005Z,2.367859
2019-01-28T21:49:24.906Z,2.398071
2019-01-28T21:52:52.786Z,2.398071
2019-01-28T21:56:20.676Z,2.388
2019-01-28T21:59:49.562Z,2.398071
2019-01-28T22:03:17.459Z,2.428284
2019-01-28T22:06:46.373Z,2.428284
2019-01-28T22:10:14.258Z,2.448425
2019-01-28T22:13:42.199Z,2.418213
2019-01-28T22:17:10.176Z,2.388
2019-01-28T22:20:38.072Z,2.317505
2019-01-28T22:24:07.007Z,2.297363
2019-01-28T22:27:34.899Z,2.317505
2019-01-28T22:31:02.777Z,2.357788
2019-01-28T22:34:30.681Z,2.398071
2019-01-28T22:37:58.576Z,2.367859
2019-01-28T22:41:26.459Z,2.388
2019-01-28T22:44:54.369Z,2.357788
2019-01-28T22:48:23.261Z,2.367859
2019-01-28T22:51:51.157Z,2.388
2019-01-28T22:55:19.075Z,2.347717
2019-01-28T22:58:46.975Z,2.357788
